Skip Navigation Links
NOAA logo - Click to go to the NOAA homepage
NOAA's National Weather Service
Alaska Aviation Weather Unit
  NWS logo - Click to go to the NWS homepage
Left Navbar Graphic     23 AKDT = 07 GMT

   
NOAA is celebrating 200 years of science, service, and stewardship. Visit the NOAA 200th celebration Web site to learn more.
USA.gov is the U.S. Government's official Web portal to all Federal, state and local government Web resources and services.
Facebook
NWS on Facebook

AAWU Home :: Display TAF Add Bookmark
METAR PATO 240153Z AUTO 15007KT 10SM CLR 09/01 A2971 RMK AO2 SLP060
     T00940006 TSNO=

METAR PATO 240253Z AUTO 13005KT 10SM FEW070 BKN120 09/01 A2970 RMK AO2
     SLP059 T00890006 56007 TSNO=

METAR PATO 240353Z AUTO 13006KT 10SM OVC060 07/00 A2970 RMK AO2 SLP058
     T00720000 TSNO=

METAR PATO 240453Z AUTO 08006KT 10SM FEW050 BKN060 OVC080 06/00
    A2970 RMK AO2 SLP059 T00610000 TSNO=

METAR PATO 240553Z AUTO 09005KT 10SM BKN050 OVC060 05/00 A2970 RMK AO2
     SLP059 T00500000 10100 20050 55000 TSNO=

METAR PATO 240653Z AUTO 07006KT 10SM OVC050 06/00 A2970 RMK AO2 SLP059
     T00560000 TSNO=


NOAA's National Weather Service
Alaska Aviation Weather Unit
6930 Sand Lake Road
Anchorage, AK 99502-1845
Disclaimer
Credits
Glossary
Privacy Policy
About Us
Career Opportunities
Contact AAWU Internet Services Site last modified: April, 17th 2012